Time;durP1;ratioP1;P1;durP2;ratioP2;P2;SDS_P1;SDS_P2;PMS_P1;PMS_P2;Temp;Humidity;BMP_temperature;BMP_pressure;BME280_temperature;BME280_humidity;BME280_pressure;Samples;Min_cycle;Max_cycle;Signal;HPM_P1;HPM_P2
2021/10/30 00:02:28;;;;;;;1.90;1.67;;;13.60;99.90;;;;;;5130622;27;20449;-66
2021/10/30 00:04:59;;;;;;;5.70;2.77;;;13.60;99.90;;;;;;5129396;27;20467;-66
2021/10/30 00:07:30;;;;;;;3.20;1.80;;;13.50;99.90;;;;;;5131166;27;20455;-65
2021/10/30 00:10:01;;;;;;;3.03;2.60;;;13.40;99.90;;;;;;5128500;27;20498;-66
2021/10/30 00:12:33;;;;;;;4.80;3.13;;;13.30;99.90;;;;;;5131397;27;20574;-66
2021/10/30 00:15:06;;;;;;;2.50;1.90;;;13.30;99.90;;;;;;5127486;27;20909;-66
2021/10/30 00:17:36;;;;;;;3.60;2.80;;;13.20;99.90;;;;;;5129900;27;20615;-65
2021/10/30 00:20:08;;;;;;;4.00;3.10;;;13.10;99.90;;;;;;5126383;27;20460;-66
2021/10/30 00:22:39;;;;;;;5.07;2.73;;;13.10;99.90;;;;;;5129937;27;20492;-66
2021/10/30 00:25:13;;;;;;;4.63;3.40;;;13.00;99.90;;;;;;5120114;27;20509;-66
2021/10/30 00:27:46;;;;;;;5.10;2.43;;;12.90;99.90;;;;;;5122798;27;20907;-66
2021/10/30 00:30:17;;;;;;;7.77;2.50;;;12.90;99.90;;;;;;5128582;27;20499;-66
2021/10/30 00:32:47;;;;;;;3.40;2.33;;;12.80;99.90;;;;;;5128465;27;20453;-66
2021/10/30 00:35:18;;;;;;;5.63;3.40;;;12.80;99.90;;;;;;5127568;27;20469;-66
2021/10/30 00:37:49;;;;;;;3.70;2.53;;;12.70;99.90;;;;;;5124774;27;20800;-67
2021/10/30 00:40:20;;;;;;;4.17;3.27;;;12.60;99.90;;;;;;5128390;27;20449;-66
2021/10/30 00:42:52;;;;;;;3.07;2.47;;;12.50;99.90;;;;;;5127635;27;20452;-66
2021/10/30 00:45:23;;;;;;;4.03;2.33;;;12.50;99.90;;;;;;5121469;27;20487;-66
2021/10/30 00:47:54;;;;;;;4.23;2.17;;;12.40;99.90;;;;;;5123190;27;20467;-66
2021/10/30 00:50:25;;;;;;;7.83;2.77;;;12.40;99.90;;;;;;5128502;27;20566;-66
2021/10/30 00:52:57;;;;;;;2.67;2.47;;;12.40;99.90;;;;;;5125974;27;20457;-65
2021/10/30 00:55:28;;;;;;;4.00;3.30;;;12.20;99.90;;;;;;5131158;27;20449;-66
2021/10/30 00:58:02;;;;;;;3.53;2.90;;;12.10;99.90;;;;;;5125849;27;20453;-66
2021/10/30 01:00:34;;;;;;;4.60;2.13;;;12.00;99.90;;;;;;5129753;27;20456;-66
2021/10/30 01:03:06;;;;;;;4.80;3.37;;;11.90;99.90;;;;;;5127641;27;20784;-66
2021/10/30 01:05:37;;;;;;;4.37;2.57;;;11.90;99.90;;;;;;5129349;27;20925;-66
2021/10/30 01:08:12;;;;;;;5.30;2.80;;;11.80;99.90;;;;;;5129245;27;20467;-66
2021/10/30 01:10:43;;;;;;;5.47;2.93;;;11.90;99.90;;;;;;5129011;27;20508;-66
2021/10/30 01:13:17;;;;;;;3.17;2.87;;;11.80;99.90;;;;;;5128882;27;20535;-66
2021/10/30 01:15:48;;;;;;;4.60;3.10;;;11.70;99.90;;;;;;5129454;27;20492;-66
2021/10/30 01:18:19;;;;;;;4.40;3.97;;;11.60;99.90;;;;;;5127099;27;20537;-66
2021/10/30 01:20:51;;;;;;;5.87;4.17;;;11.50;99.90;;;;;;5130957;27;20532;-66
2021/10/30 01:23:22;;;;;;;5.87;4.10;;;11.50;99.90;;;;;;5111192;27;20544;-66
2021/10/30 01:25:59;;;;;;;6.97;5.97;;;11.40;99.90;;;;;;5129794;27;20472;-66
2021/10/30 01:28:32;;;;;;;9.07;8.17;;;11.20;99.90;;;;;;5121280;27;20461;-66
2021/10/30 01:31:03;;;;;;;7.90;7.20;;;11.10;99.90;;;;;;5126232;27;20494;-66
2021/10/30 01:33:33;;;;;;;7.13;6.43;;;11.00;99.90;;;;;;5129339;27;20969;-66
2021/10/30 01:36:10;;;;;;;8.50;6.53;;;10.90;99.90;;;;;;5126364;27;20555;-67
2021/10/30 01:38:41;;;;;;;8.13;6.30;;;10.90;99.90;;;;;;5130347;27;20452;-66
2021/10/30 01:41:12;;;;;;;7.03;6.37;;;10.70;99.90;;;;;;5127275;27;20453;-67
2021/10/30 01:43:46;;;;;;;8.13;6.63;;;10.70;99.90;;;;;;5128683;27;21032;-67
2021/10/30 01:46:18;;;;;;;8.70;6.73;;;10.60;99.90;;;;;;5129389;27;20453;-66
2021/10/30 01:48:49;;;;;;;9.93;7.77;;;10.50;99.90;;;;;;5125692;27;20468;-65
2021/10/30 01:51:24;;;;;;;10.20;9.27;;;10.50;99.90;;;;;;5129713;27;20487;-65
2021/10/30 01:53:55;;;;;;;10.93;9.40;;;10.40;99.90;;;;;;5118536;27;20850;-65
2021/10/30 01:56:26;;;;;;;11.50;9.07;;;10.40;99.90;;;;;;5130330;27;20954;-65
2021/10/30 01:58:57;;;;;;;7.10;5.63;;;10.40;99.90;;;;;;5128150;27;20889;-65
2021/10/30 02:01:28;;;;;;;6.45;5.47;;;10.50;99.90;;;;;;5115144;28;20437;-65
2021/10/30 02:03:59;;;;;;;9.57;7.85;;;10.40;99.90;;;;;;5128695;27;20215;-65
2021/10/30 02:06:32;;;;;;;7.90;6.43;;;10.30;99.90;;;;;;5122943;27;20276;-65
2021/10/30 02:09:03;;;;;;;8.03;6.17;;;10.40;99.90;;;;;;5128211;27;20467;-68
2021/10/30 02:11:33;;;;;;;10.10;8.00;;;10.30;99.90;;;;;;5128811;27;20613;-66
2021/10/30 02:14:04;;;;;;;7.55;5.30;;;10.30;99.90;;;;;;5127468;28;20536;-66
2021/10/30 02:16:37;;;;;;;7.88;4.95;;;10.30;99.90;;;;;;5128377;27;20523;-66
2021/10/30 02:19:08;;;;;;;6.50;5.90;;;10.30;99.90;;;;;;5125873;28;20215;-65
2021/10/30 02:21:41;;;;;;;9.25;6.55;;;10.20;99.90;;;;;;5129878;27;20313;-66
2021/10/30 02:24:12;;;;;;;9.45;6.88;;;10.20;99.90;;;;;;5126096;27;20233;-66
2021/10/30 02:26:43;;;;;;;9.02;5.55;;;10.20;99.90;;;;;;5129813;27;20250;-66
2021/10/30 02:29:14;;;;;;;8.18;6.03;;;10.10;99.90;;;;;;5119052;27;20648;-65
2021/10/30 02:31:45;;;;;;;8.60;6.05;;;10.10;99.90;;;;;;5127280;27;20400;-65
2021/10/30 02:34:16;;;;;;;7.33;6.20;;;10.10;99.90;;;;;;5118798;27;20855;-68
2021/10/30 02:36:48;;;;;;;11.50;9.15;;;10.10;99.90;;;;;;5123349;27;21099;-66
2021/10/30 02:39:19;;;;;;;8.23;6.60;;;10.10;99.90;;;;;;5119092;27;20298;-66
2021/10/30 02:41:50;;;;;;;7.82;6.65;;;10.10;99.90;;;;;;5129420;27;20523;-68
2021/10/30 02:44:23;;;;;;;6.90;6.00;;;10.20;99.90;;;;;;5123729;27;20306;-67
2021/10/30 02:46:54;;;;;;;6.75;5.55;;;10.10;99.90;;;;;;5126287;27;20689;-69
2021/10/30 02:49:25;;;;;;;8.00;4.82;;;10.10;99.90;;;;;;5117470;27;20640;-67
2021/10/30 02:51:58;;;;;;;6.57;5.88;;;10.10;99.90;;;;;;5129457;27;20552;-69
2021/10/30 02:54:29;;;;;;;6.20;4.88;;;10.00;99.90;;;;;;5125501;27;20661;-68
2021/10/30 02:57:00;;;;;;;11.45;5.80;;;9.90;99.90;;;;;;5126059;27;20215;-68
2021/10/30 02:59:31;;;;;;;5.13;4.50;;;9.90;99.90;;;;;;5127298;27;20621;-64
2021/10/30 03:02:02;;;;;;;6.55;4.38;;;9.80;99.90;;;;;;5125891;27;20672;-63
2021/10/30 03:04:35;;;;;;;8.63;6.40;;;9.70;99.90;;;;;;5125218;27;20741;-65
2021/10/30 03:07:07;;;;;;;11.07;5.40;;;9.80;99.90;;;;;;5125237;27;20302;-65
2021/10/30 03:09:38;;;;;;;6.78;5.28;;;9.80;99.90;;;;;;5124695;27;20649;-65
2021/10/30 03:12:10;;;;;;;5.40;4.85;;;9.80;99.90;;;;;;5126777;27;20245;-66
2021/10/30 03:14:41;;;;;;;7.90;5.15;;;9.70;99.90;;;;;;5132431;27;20257;-65
2021/10/30 03:17:12;;;;;;;6.63;5.45;;;9.70;99.90;;;;;;5131003;27;20227;-66
2021/10/30 03:19:42;;;;;;;8.23;6.90;;;9.60;99.90;;;;;;5127673;27;20531;-66
2021/10/30 03:22:15;;;;;;;8.77;7.13;;;9.50;99.90;;;;;;5131991;27;20211;-66
2021/10/30 03:24:46;;;;;;;8.25;6.10;;;9.50;99.90;;;;;;5128177;27;20660;-67
2021/10/30 03:27:17;;;;;;;6.90;5.68;;;9.50;99.90;;;;;;5131632;27;20215;-67
2021/10/30 03:29:48;;;;;;;9.05;5.35;;;9.50;99.90;;;;;;5127237;27;20731;-67
2021/10/30 03:32:18;;;;;;;6.30;5.38;;;9.40;99.90;;;;;;5130722;27;20600;-67
2021/10/30 03:34:49;;;;;;;5.78;5.18;;;9.40;99.90;;;;;;5130912;27;20207;-67
2021/10/30 03:37:22;;;;;;;10.18;5.00;;;9.40;99.90;;;;;;5130896;27;20557;-67
2021/10/30 03:39:53;;;;;;;5.95;4.80;;;9.40;99.90;;;;;;5131063;27;20210;-67
2021/10/30 03:42:24;;;;;;;11.38;6.45;;;9.40;99.90;;;;;;5131637;27;20219;-68
2021/10/30 03:44:55;;;;;;;13.20;9.50;;;9.30;99.90;;;;;;5130914;27;20326;-67
2021/10/30 03:47:26;;;;;;;16.33;11.60;;;9.30;99.90;;;;;;5130221;27;20222;-67
2021/10/30 03:49:56;;;;;;;10.75;9.73;;;9.30;99.90;;;;;;5128396;27;20641;-67
2021/10/30 03:52:29;;;;;;;9.30;7.90;;;9.40;99.90;;;;;;5130133;27;20716;-68
2021/10/30 03:55:00;;;;;;;13.32;8.85;;;9.30;99.90;;;;;;5126964;27;20665;-67
2021/10/30 03:57:31;;;;;;;10.45;8.18;;;9.30;99.90;;;;;;5131795;27;20219;-69
2021/10/30 04:00:02;;;;;;;13.60;10.55;;;9.30;99.90;;;;;;5128524;27;20222;-68
2021/10/30 04:02:33;;;;;;;13.73;10.95;;;9.20;99.90;;;;;;5130062;27;20221;-69
2021/10/30 04:05:05;;;;;;;13.32;10.13;;;9.20;99.90;;;;;;5127733;27;20602;-67
2021/10/30 04:07:37;;;;;;;10.00;7.93;;;9.10;99.90;;;;;;5129572;27;20302;-67
2021/10/30 04:10:09;;;;;;;8.20;6.50;;;9.10;99.90;;;;;;5130355;27;20212;-69
2021/10/30 04:12:40;;;;;;;12.10;7.30;;;9.10;99.90;;;;;;5129403;27;20223;-67
2021/10/30 04:15:12;;;;;;;13.05;9.07;;;9.00;99.90;;;;;;5127606;27;20251;-67
2021/10/30 04:17:43;;;;;;;12.05;8.90;;;9.00;99.90;;;;;;5126330;27;20215;-67
2021/10/30 04:20:14;;;;;;;9.05;8.15;;;9.00;99.90;;;;;;5128382;27;20237;-66
2021/10/30 04:22:46;;;;;;;11.30;9.65;;;8.90;99.90;;;;;;5127535;27;20740;-67
2021/10/30 04:25:17;;;;;;;8.75;6.63;;;8.90;99.90;;;;;;5128483;27;20211;-66
2021/10/30 04:27:48;;;;;;;7.68;6.80;;;8.80;99.90;;;;;;5109772;27;20211;-67
2021/10/30 04:30:19;;;;;;;11.57;8.70;;;8.80;99.90;;;;;;5119256;27;20234;-67
2021/10/30 04:32:50;;;;;;;10.63;8.73;;;8.80;99.90;;;;;;5115276;27;20241;-67
2021/10/30 04:35:22;;;;;;;10.85;8.50;;;8.80;99.90;;;;;;5130084;27;20637;-66
2021/10/30 04:37:54;;;;;;;8.48;6.82;;;8.70;99.90;;;;;;5128715;27;20580;-68
2021/10/30 04:40:25;;;;;;;9.90;6.63;;;8.60;99.90;;;;;;5122769;27;20552;-66
2021/10/30 04:42:56;;;;;;;9.65;7.32;;;8.40;99.90;;;;;;5124632;27;20203;-67
2021/10/30 04:45:27;;;;;;;8.88;6.60;;;8.40;99.90;;;;;;5127049;27;20283;-67
2021/10/30 04:47:58;;;;;;;10.73;6.57;;;8.40;99.90;;;;;;5125453;27;20222;-67
2021/10/30 04:50:31;;;;;;;7.75;6.95;;;8.30;99.90;;;;;;5124235;27;20210;-67
2021/10/30 04:53:04;;;;;;;8.40;7.13;;;8.30;99.90;;;;;;5120867;27;20251;-68
2021/10/30 04:55:35;;;;;;;16.55;8.45;;;8.30;99.90;;;;;;5128470;27;20210;-68
2021/10/30 04:58:05;;;;;;;15.65;12.70;;;8.30;99.90;;;;;;5129940;27;20211;-68
2021/10/30 05:00:36;;;;;;;14.93;10.65;;;8.30;99.90;;;;;;5128176;27;20298;-68
2021/10/30 05:03:21;;;;;;;16.08;13.20;;;8.30;99.90;;;;;;5124220;27;20218;-68
2021/10/30 05:06:25;;;;;;;14.45;12.80;;;8.20;99.90;;;;;;5124068;27;20239;-69
2021/10/30 05:09:10;;;;;;;18.67;16.35;;;8.10;99.90;;;;;;5126321;27;20219;-67
2021/10/30 05:11:57;;;;;;;20.30;16.75;;;8.10;99.90;;;;;;5125619;27;20218;-68
2021/10/30 05:14:49;;;;;;;22.98;18.70;;;8.00;99.90;;;;;;5124360;27;20314;-68
2021/10/30 05:17:33;;;;;;;20.63;18.45;;;8.00;99.90;;;;;;5130075;27;20219;-68
2021/10/30 05:20:10;;;;;;;21.02;18.83;;;8.00;99.90;;;;;;5124792;27;20207;-69
2021/10/30 05:22:51;;;;;;;24.23;21.63;;;8.00;99.90;;;;;;5126869;27;20282;-68
2021/10/30 05:25:27;;;;;;;23.30;20.90;;;8.00;99.90;;;;;;5118203;27;20691;-66
2021/10/30 05:28:00;;;;;;;18.98;16.98;;;7.90;99.90;;;;;;5128124;27;20218;-67
2021/10/30 05:30:31;;;;;;;20.33;18.20;;;7.90;99.90;;;;;;5129233;27;20695;-67
2021/10/30 05:33:02;;;;;;;17.48;14.82;;;7.90;99.90;;;;;;5128680;27;20266;-67
2021/10/30 05:35:33;;;;;;;16.48;12.60;;;7.70;99.90;;;;;;5125067;27;20208;-67
2021/10/30 05:38:04;;;;;;;12.55;11.27;;;7.70;99.90;;;;;;5127482;27;20207;-67
2021/10/30 05:40:38;;;;;;;11.98;10.75;;;7.70;99.90;;;;;;5128035;27;20684;-67
2021/10/30 05:43:09;;;;;;;12.85;11.45;;;7.60;99.90;;;;;;5126099;27;20592;-67
2021/10/30 05:45:40;;;;;;;16.10;10.38;;;7.50;99.90;;;;;;5130392;27;20207;-67
2021/10/30 05:48:14;;;;;;;10.57;9.57;;;7.40;99.90;;;;;;5127056;27;20221;-67
2021/10/30 05:50:45;;;;;;;11.45;10.30;;;7.40;99.90;;;;;;5128789;27;20207;-66
2021/10/30 05:53:16;;;;;;;14.10;11.65;;;7.40;99.90;;;;;;5125423;27;20254;-67
2021/10/30 05:55:48;;;;;;;13.20;10.25;;;7.40;99.90;;;;;;5129272;27;20211;-66
2021/10/30 05:58:19;;;;;;;15.50;11.20;;;7.30;99.90;;;;;;5128439;27;20599;-66
2021/10/30 06:00:50;;;;;;;14.05;10.05;;;7.30;99.90;;;;;;5126445;27;20305;-65
2021/10/30 06:03:22;;;;;;;11.15;9.95;;;7.20;99.90;;;;;;5125295;27;20610;-65
2021/10/30 06:05:53;;;;;;;12.02;10.82;;;7.10;99.90;;;;;;5129935;27;20240;-66
2021/10/30 06:08:24;;;;;;;12.18;10.90;;;7.20;99.90;;;;;;5119093;28;20211;-66
2021/10/30 06:10:57;;;;;;;15.57;13.90;;;7.20;99.90;;;;;;5128676;27;20225;-67
2021/10/30 06:13:29;;;;;;;12.52;11.02;;;7.20;99.90;;;;;;5122283;27;20302;-67
2021/10/30 06:16:00;;;;;;;11.90;10.25;;;7.10;99.90;;;;;;5128046;27;20211;-67
2021/10/30 06:18:31;;;;;;;12.95;10.00;;;7.10;99.90;;;;;;5127564;27;20554;-66
2021/10/30 06:21:01;;;;;;;14.40;8.95;;;7.00;99.90;;;;;;5128445;27;20251;-67
2021/10/30 06:23:32;;;;;;;12.32;9.73;;;7.00;99.90;;;;;;5127663;27;20214;-67
2021/10/30 06:26:05;;;;;;;12.20;10.70;;;6.90;99.90;;;;;;5129724;27;20575;-67
2021/10/30 06:28:37;;;;;;;15.27;9.52;;;6.80;99.90;;;;;;5127469;27;20698;-67
2021/10/30 06:31:08;;;;;;;10.30;9.30;;;6.90;99.90;;;;;;5126179;27;20625;-67
2021/10/30 06:33:39;;;;;;;12.05;10.10;;;6.80;99.90;;;;;;5126088;27;20237;-67
2021/10/30 06:36:10;;;;;;;12.88;10.52;;;6.80;99.90;;;;;;5127067;27;20219;-68
2021/10/30 06:38:41;;;;;;;15.23;10.32;;;6.80;99.90;;;;;;5127689;27;20540;-67
2021/10/30 06:41:14;;;;;;;12.90;9.40;;;6.80;99.90;;;;;;5129089;27;20217;-67
2021/10/30 06:44:02;;;;;;;9.40;8.50;;;6.80;99.90;;;;;;5124771;27;20284;-67
2021/10/30 06:46:33;;;;;;;9.07;8.15;;;6.80;99.90;;;;;;5129862;27;20221;-67
2021/10/30 06:49:04;;;;;;;12.23;8.52;;;6.90;99.90;;;;;;5119216;27;20210;-67
2021/10/30 06:51:35;;;;;;;12.07;8.55;;;6.90;99.90;;;;;;5131727;27;20221;-67
2021/10/30 06:54:05;;;;;;;10.65;8.43;;;7.00;99.90;;;;;;5130880;27;20280;-68
2021/10/30 06:56:40;;;;;;;13.65;9.77;;;7.10;99.90;;;;;;5131860;27;20207;-67
2021/10/30 06:59:11;;;;;;;12.07;9.43;;;7.10;99.90;;;;;;5129165;27;20224;-66
2021/10/30 07:01:42;;;;;;;12.57;8.90;;;7.20;99.90;;;;;;5129965;27;20211;-67
2021/10/30 07:04:14;;;;;;;10.50;8.00;;;7.20;99.90;;;;;;5129979;27;20657;-67
2021/10/30 07:06:45;;;;;;;13.15;8.10;;;7.20;99.90;;;;;;5132831;27;20227;-68
2021/10/30 07:09:15;;;;;;;12.88;8.68;;;7.30;99.90;;;;;;5130623;27;20218;-68
2021/10/30 07:11:48;;;;;;;8.90;8.00;;;7.40;99.90;;;;;;5128573;27;20207;-67
2021/10/30 07:14:28;;;;;;;13.20;8.45;;;7.40;99.90;;;;;;5129512;27;20279;-67
2021/10/30 07:16:59;;;;;;;10.07;7.90;;;7.40;99.90;;;;;;5127981;27;20774;-68
2021/10/30 07:19:30;;;;;;;9.20;8.30;;;7.40;99.90;;;;;;5129812;27;20215;-68
2021/10/30 07:22:01;;;;;;;11.90;8.15;;;7.40;99.90;;;;;;5130840;27;20215;-69
2021/10/30 07:24:32;;;;;;;10.60;8.60;;;7.40;99.90;;;;;;5129590;27;20361;-68
2021/10/30 07:27:05;;;;;;;10.63;9.02;;;7.30;99.90;;;;;;5132902;27;20557;-68
2021/10/30 07:29:36;;;;;;;10.00;8.50;;;7.30;99.90;;;;;;5129452;27;20222;-67
2021/10/30 07:32:07;;;;;;;8.60;7.70;;;7.30;99.90;;;;;;5132383;27;20207;-67
2021/10/30 07:34:38;;;;;;;8.55;7.70;;;7.20;99.90;;;;;;5122156;27;20747;-68
2021/10/30 07:37:09;;;;;;;9.60;7.70;;;7.20;99.90;;;;;;5132029;27;20207;-67
2021/10/30 07:39:40;;;;;;;10.18;7.63;;;7.20;99.90;;;;;;5130419;27;20207;-67
2021/10/30 07:42:13;;;;;;;11.10;9.18;;;7.20;99.90;;;;;;5132425;27;20215;-66
2021/10/30 07:44:44;;;;;;;9.25;8.35;;;7.20;99.90;;;;;;5130760;27;20211;-67
2021/10/30 07:47:29;;;;;;;11.23;8.05;;;7.20;99.90;;;;;;5129692;27;20217;-71
2021/10/30 07:50:01;;;;;;;9.98;7.88;;;7.20;99.90;;;;;;5128665;27;20308;-68
2021/10/30 07:52:32;;;;;;;9.75;8.20;;;7.20;99.90;;;;;;5125395;27;20235;-69
2021/10/30 07:55:03;;;;;;;10.80;9.70;;;7.20;99.90;;;;;;5101713;28;20220;-68
2021/10/30 07:57:35;;;;;;;9.23;7.97;;;7.20;99.90;;;;;;5108496;28;20211;-68
2021/10/30 08:00:08;;;;;;;9.73;8.80;;;7.20;99.90;;;;;;5101788;28;20650;-68
2021/10/30 08:02:39;;;;;;;9.73;7.95;;;7.20;99.90;;;;;;5093860;28;20288;-68
2021/10/30 08:05:11;;;;;;;8.38;7.30;;;7.20;99.90;;;;;;5109076;28;20272;-68
2021/10/30 08:07:42;;;;;;;9.40;8.50;;;7.20;99.90;;;;;;5104236;28;20232;-67
2021/10/30 08:10:18;;;;;;;11.45;9.45;;;7.10;99.90;;;;;;5101536;28;20212;-68
2021/10/30 08:12:50;;;;;;;9.30;8.07;;;7.20;99.90;;;;;;5103948;28;20666;-68
2021/10/30 08:15:21;;;;;;;9.40;8.40;;;7.20;99.90;;;;;;5108550;27;20219;-68
2021/10/30 08:17:52;;;;;;;9.15;8.25;;;7.20;99.90;;;;;;5110255;28;20577;-68
2021/10/30 08:20:24;;;;;;;9.35;8.00;;;7.20;99.90;;;;;;5106284;28;20242;-68
2021/10/30 08:22:54;;;;;;;9.95;7.80;;;7.10;99.90;;;;;;5103015;28;20205;-68
2021/10/30 08:25:26;;;;;;;8.95;8.05;;;7.10;99.90;;;;;;5101656;28;20298;-68
2021/10/30 08:28:00;;;;;;;10.00;7.65;;;7.10;99.90;;;;;;5109357;27;20308;-68
2021/10/30 08:30:31;;;;;;;9.93;7.90;;;7.20;99.90;;;;;;5109038;28;20231;-68
2021/10/30 08:33:02;;;;;;;8.15;7.35;;;7.10;99.90;;;;;;5101664;28;20299;-68
2021/10/30 08:35:33;;;;;;;11.50;8.43;;;7.10;99.90;;;;;;5111245;28;20316;-68
2021/10/30 08:38:08;;;;;;;14.98;9.52;;;7.10;99.90;;;;;;5104349;28;20237;-68
2021/10/30 08:40:41;;;;;;;8.95;7.78;;;7.10;99.90;;;;;;5109116;28;20249;-68
2021/10/30 08:43:21;;;;;;;9.23;8.07;;;7.10;99.90;;;;;;5103900;28;20680;-68
2021/10/30 08:45:53;;;;;;;8.60;7.22;;;7.10;99.90;;;;;;5110930;28;20268;-68
2021/10/30 08:48:25;;;;;;;9.65;8.13;;;7.00;99.90;;;;;;5098833;28;20542;-68
2021/10/30 08:50:57;;;;;;;8.80;7.85;;;7.00;99.90;;;;;;5109071;28;20556;-68
2021/10/30 08:53:28;;;;;;;10.55;8.57;;;7.00;99.90;;;;;;5099137;28;20216;-68
2021/10/30 08:56:03;;;;;;;8.40;7.60;;;6.90;99.90;;;;;;5105469;28;20223;-68
2021/10/30 08:58:36;;;;;;;8.15;7.35;;;6.90;99.90;;;;;;5110084;28;20578;-68
2021/10/30 09:01:09;;;;;;;7.95;7.32;;;6.90;99.90;;;;;;5100237;28;20638;-68
2021/10/30 09:03:40;;;;;;;8.63;7.85;;;6.80;99.90;;;;;;5103399;28;20208;-68
2021/10/30 09:06:11;;;;;;;10.10;7.95;;;6.80;99.90;;;;;;5103846;28;20227;-68
2021/10/30 09:08:42;;;;;;;7.63;6.93;;;6.70;99.90;;;;;;5107587;28;20204;-68
2021/10/30 09:11:14;;;;;;;8.65;7.28;;;6.70;99.90;;;;;;5097742;28;20216;-68
2021/10/30 09:13:57;;;;;;;8.13;7.43;;;6.60;99.90;;;;;;5104119;28;20211;-68
2021/10/30 09:16:27;;;;;;;8.48;7.70;;;6.50;99.90;;;;;;5108481;28;20332;-68
2021/10/30 09:18:58;;;;;;;9.52;8.43;;;6.50;99.90;;;;;;5098683;28;20216;-68
2021/10/30 09:21:32;;;;;;;10.63;7.97;;;6.60;99.90;;;;;;5103347;28;20214;-68
2021/10/30 09:24:03;;;;;;;9.88;8.18;;;6.60;99.90;;;;;;5100098;28;20215;-68
2021/10/30 09:26:35;;;;;;;9.57;8.02;;;6.60;99.90;;;;;;5102427;28;20544;-68
2021/10/30 09:29:13;;;;;;;9.35;8.07;;;6.60;99.90;;;;;;5103657;28;20215;-67
2021/10/30 09:31:43;;;;;;;10.60;8.90;;;6.60;99.90;;;;;;5107708;28;20208;-68
2021/10/30 09:34:26;;;;;;;8.52;7.72;;;6.60;99.90;;;;;;5099256;28;20212;-67
2021/10/30 09:36:59;;;;;;;9.27;8.10;;;6.50;99.90;;;;;;5105312;28;20231;-68
2021/10/30 09:39:30;;;;;;;8.38;7.63;;;6.60;99.90;;;;;;5101487;28;20208;-68
2021/10/30 09:42:00;;;;;;;8.65;7.85;;;6.60;99.90;;;;;;5098630;28;20207;-68
2021/10/30 09:44:33;;;;;;;8.60;7.35;;;6.50;99.90;;;;;;5105100;28;20252;-70
2021/10/30 09:47:04;;;;;;;9.10;8.20;;;6.40;99.90;;;;;;5106327;28;20260;-73
2021/10/30 09:49:38;;;;;;;8.30;7.40;;;6.40;99.90;;;;;;5104718;28;20284;-68
2021/10/30 09:52:13;;;;;;;8.60;7.07;;;6.40;99.90;;;;;;5105610;28;20583;-73
2021/10/30 09:54:45;;;;;;;6.90;6.20;;;6.40;99.90;;;;;;5105578;28;20207;-67
2021/10/30 09:57:17;;;;;;;7.50;6.53;;;6.30;99.90;;;;;;5098940;28;20593;-72
2021/10/30 09:59:51;;;;;;;8.18;7.38;;;6.30;99.90;;;;;;5106422;28;20629;-68
2021/10/30 10:02:23;;;;;;;7.15;6.45;;;6.40;99.90;;;;;;5101032;28;20318;-68
2021/10/30 10:04:59;;;;;;;6.75;6.15;;;6.40;99.90;;;;;;5107510;28;20217;-69
2021/10/30 10:07:33;;;;;;;7.80;6.20;;;6.30;99.90;;;;;;5103257;28;20265;-71
2021/10/30 10:10:04;;;;;;;7.82;6.85;;;6.30;99.90;;;;;;5109485;28;20290;-70
2021/10/30 10:12:36;;;;;;;6.72;5.95;;;6.20;99.90;;;;;;5100314;28;20219;-68
2021/10/30 10:15:10;;;;;;;6.10;5.60;;;6.10;99.90;;;;;;5105701;28;20237;-72
2021/10/30 10:17:41;;;;;;;7.20;5.78;;;6.10;99.90;;;;;;5104331;28;20691;-69
2021/10/30 10:20:14;;;;;;;7.55;5.97;;;6.10;99.90;;;;;;5099718;28;20216;-67
2021/10/30 10:22:48;;;;;;;5.85;5.03;;;6.10;99.90;;;;;;5105499;28;20282;-71
2021/10/30 10:25:32;;;;;;;6.78;6.00;;;6.10;99.90;;;;;;5113140;28;20262;-68
2021/10/30 10:28:32;;;;;;;5.85;5.25;;;6.10;99.90;;;;;;5102211;28;20201;-69
2021/10/30 10:31:12;;;;;;;7.53;6.00;;;6.00;99.90;;;;;;5112427;28;20211;-70
2021/10/30 10:33:43;;;;;;;9.77;5.93;;;6.00;99.90;;;;;;5096693;28;20212;-69
2021/10/30 10:36:23;;;;;;;5.63;4.90;;;5.90;99.90;;;;;;5114090;28;20227;-73
2021/10/30 10:39:21;;;;;;;5.72;4.90;;;5.90;99.90;;;;;;5104974;28;20217;-71
2021/10/30 10:42:03;;;;;;;5.60;5.10;;;5.90;99.90;;;;;;5108743;27;20230;-73
2021/10/30 10:45:02;;;;;;;7.13;5.80;;;5.90;99.90;;;;;;5109162;28;20211;-69
2021/10/30 10:48:02;;;;;;;6.13;5.53;;;5.80;99.90;;;;;;5104054;28;20366;-71
2021/10/30 10:50:50;;;;;;;5.15;4.65;;;5.80;99.90;;;;;;5103034;28;20294;-73
2021/10/30 10:53:25;;;;;;;5.93;5.35;;;5.80;99.90;;;;;;5100616;28;20239;-69
2021/10/30 10:56:22;;;;;;;5.32;4.82;;;5.90;99.90;;;;;;5109660;28;20254;-72
2021/10/30 10:59:20;;;;;;;5.55;5.03;;;5.90;99.90;;;;;;5102196;28;20216;-72
2021/10/30 11:02:20;;;;;;;5.50;5.00;;;5.90;99.90;;;;;;5098584;28;20215;-72
2021/10/30 11:05:24;;;;;;;5.70;5.10;;;6.00;99.90;;;;;;5095716;28;20211;-70
2021/10/30 11:08:36;;;;;;;6.65;4.60;;;6.00;99.90;;;;;;5100915;28;20216;-70
2021/10/30 11:11:27;;;;;;;10.52;5.05;;;6.00;99.90;;;;;;5105517;28;20203;-71
2021/10/30 11:14:01;;;;;;;5.43;4.95;;;6.00;99.90;;;;;;5105428;28;20240;-72
2021/10/30 11:16:34;;;;;;;5.72;5.15;;;5.90;99.90;;;;;;5110538;28;20324;-67
2021/10/30 11:19:14;;;;;;;5.18;4.72;;;5.90;99.90;;;;;;5108784;28;20220;-67
2021/10/30 11:21:48;;;;;;;5.47;4.97;;;5.90;99.90;;;;;;5109003;28;20650;-69
2021/10/30 11:24:30;;;;;;;7.60;5.95;;;6.00;99.90;;;;;;5111620;28;20537;-68
2021/10/30 11:27:05;;;;;;;5.47;4.60;;;6.00;99.90;;;;;;5104769;28;20212;-71
2021/10/30 11:29:48;;;;;;;6.40;4.47;;;5.90;99.90;;;;;;5108720;28;20357;-70
2021/10/30 11:32:19;;;;;;;5.03;4.63;;;5.90;99.90;;;;;;5097200;28;20624;-68
2021/10/30 11:34:58;;;;;;;5.40;4.88;;;5.80;99.90;;;;;;5110903;28;20624;-69
2021/10/30 11:37:39;;;;;;;4.70;4.30;;;5.80;99.90;;;;;;5107674;28;20697;-68
2021/10/30 11:40:13;;;;;;;5.15;4.65;;;5.80;99.90;;;;;;5101550;28;20238;-69
2021/10/30 11:42:48;;;;;;;4.93;4.40;;;5.90;99.90;;;;;;5109092;28;20552;-76
2021/10/30 11:45:19;;;;;;;5.20;4.75;;;5.90;99.90;;;;;;5109126;28;20215;-73
2021/10/30 11:47:54;;;;;;;5.03;4.53;;;6.00;99.90;;;;;;5104148;28;20299;-69
2021/10/30 11:50:25;;;;;;;5.18;4.75;;;5.90;99.90;;;;;;5106118;28;20221;-68
2021/10/30 11:53:02;;;;;;;5.15;4.75;;;5.90;99.90;;;;;;5102087;28;20676;-67
2021/10/30 11:55:35;;;;;;;4.55;4.13;;;5.80;99.90;;;;;;5103844;28;20211;-66
2021/10/30 11:58:10;;;;;;;5.15;4.75;;;5.70;99.90;;;;;;5097536;28;20227;-67
2021/10/30 12:00:45;;;;;;;4.40;4.00;;;5.60;99.90;;;;;;5102066;28;20212;-66
2021/10/30 12:03:15;;;;;;;4.80;4.40;;;5.70;99.90;;;;;;5109004;28;20276;-66
2021/10/30 12:05:46;;;;;;;5.28;4.88;;;5.70;99.90;;;;;;5109105;28;20272;-66
2021/10/30 12:08:17;;;;;;;4.68;4.18;;;5.70;99.90;;;;;;5109056;28;20218;-67
2021/10/30 12:10:51;;;;;;;5.15;4.75;;;5.60;99.90;;;;;;5106298;28;20676;-66
2021/10/30 12:13:21;;;;;;;5.10;4.45;;;5.60;99.90;;;;;;5109160;28;20211;-66
2021/10/30 12:15:53;;;;;;;4.40;4.00;;;5.60;99.90;;;;;;5095931;28;20301;-66
2021/10/30 12:18:24;;;;;;;4.10;3.75;;;5.60;99.90;;;;;;5096397;28;20694;-66
2021/10/30 12:20:56;;;;;;;5.10;4.63;;;5.50;99.90;;;;;;5099654;28;20246;-66
2021/10/30 12:23:28;;;;;;;4.93;4.20;;;5.50;99.90;;;;;;5109240;28;20209;-66
2021/10/30 12:26:07;;;;;;;5.05;4.55;;;5.50;99.90;;;;;;5106033;28;20515;-67
2021/10/30 12:28:39;;;;;;;4.93;3.80;;;5.50;99.90;;;;;;5107099;28;20229;-66
2021/10/30 12:31:15;;;;;;;4.40;4.00;;;5.50;99.90;;;;;;5107636;28;20688;-66
2021/10/30 12:33:49;;;;;;;5.68;4.20;;;5.50;99.90;;;;;;5109262;28;20316;-66
2021/10/30 12:36:20;;;;;;;4.65;4.25;;;5.40;99.90;;;;;;5100730;28;20240;-66
2021/10/30 12:38:55;;;;;;;6.63;4.55;;;5.40;99.90;;;;;;5101491;28;20299;-66
2021/10/30 12:41:33;;;;;;;4.50;4.10;;;5.30;99.90;;;;;;5106810;28;20219;-66
2021/10/30 12:44:04;;;;;;;4.57;4.18;;;5.40;99.90;;;;;;5101972;28;20212;-66
2021/10/30 12:46:53;;;;;;;4.80;4.35;;;5.30;99.90;;;;;;5101235;28;20216;-66
2021/10/30 12:49:25;;;;;;;7.22;4.60;;;5.20;99.90;;;;;;5104328;28;20673;-66
2021/10/30 12:52:05;;;;;;;5.10;4.70;;;5.20;99.90;;;;;;5105176;28;20618;-66
2021/10/30 12:54:37;;;;;;;5.30;4.65;;;5.10;99.90;;;;;;5107142;28;20210;-67
2021/10/30 12:57:24;;;;;;;4.60;4.20;;;5.10;99.90;;;;;;5094143;28;20228;-67
2021/10/30 13:00:05;;;;;;;6.22;4.15;;;5.20;99.90;;;;;;5107037;28;20280;-67
2021/10/30 13:02:37;;;;;;;6.32;4.70;;;5.20;99.90;;;;;;5092664;28;20649;-67
2021/10/30 13:05:15;;;;;;;5.78;4.20;;;5.20;99.90;;;;;;5109325;28;20211;-67
2021/10/30 13:07:57;;;;;;;5.35;4.95;;;5.20;99.90;;;;;;5100216;28;20287;-67
2021/10/30 13:10:30;;;;;;;5.65;4.60;;;5.10;99.90;;;;;;5101528;28;20764;-67
2021/10/30 13:13:02;;;;;;;5.28;4.78;;;5.10;99.90;;;;;;5101925;28;20657;-67
2021/10/30 13:15:33;;;;;;;5.10;4.47;;;5.10;99.90;;;;;;5110573;28;20214;-67
2021/10/30 13:18:04;;;;;;;5.30;4.80;;;5.10;99.90;;;;;;5097104;28;20224;-67
2021/10/30 13:20:35;;;;;;;6.47;4.80;;;5.10;99.90;;;;;;5105653;28;20215;-67
2021/10/30 13:23:06;;;;;;;4.78;4.20;;;5.10;99.90;;;;;;5107429;28;20526;-66
2021/10/30 13:25:37;;;;;;;3.80;3.45;;;5.10;99.90;;;;;;5099313;28;20211;-66